Time;durP1;ratioP1;P1;durP2;ratioP2;P2;SDS_P1;SDS_P2;PMS_P1;PMS_P2;Temp;Humidity;BMP_temperature;BMP_pressure;BME280_temperature;BME280_humidity;BME280_pressure;Samples;Min_cycle;Max_cycle;Signal;HPM_P1;HPM_P2
2023/01/05 00:01:50;;;;;;;;;4.00;4.00;;;;;13.32;57.52;98300.81;6183448;28;96650;-61
2023/01/05 00:04:54;;;;;;;;;3.00;3.00;;;;;13.38;57.14;98296.28;6165027;28;96272;-63
2023/01/05 00:07:57;;;;;;;;;5.00;4.80;;;;;13.40;57.33;98288.69;6185394;28;96428;-61
2023/01/05 00:24:35;;;;;;;;;4.00;4.00;;;;;13.22;57.71;98276.31;6189923;28;97418;-61
2023/01/05 00:27:41;;;;;;;;;3.00;3.00;;;;;13.17;57.85;98265.44;6189429;28;96522;-62
2023/01/05 00:30:46;;;;;;;;;3.40;3.00;;;;;13.16;57.92;98252.16;6184647;28;96624;-62
2023/01/05 00:33:49;;;;;;;;;2.50;2.50;;;;;13.21;57.99;98249.50;6180205;28;96244;-61
2023/01/05 00:36:53;;;;;;;;;4.00;4.00;;;;;13.27;57.55;98259.31;6184069;28;96225;-61
2023/01/05 00:39:56;;;;;;;;;3.00;3.00;;;;;13.26;57.71;98253.09;6187391;28;96224;-62
2023/01/05 00:43:01;;;;;;;;;3.33;3.00;;;;;13.28;57.58;98269.09;6188235;28;96236;-61
2023/01/05 00:46:05;;;;;;;;;5.00;5.00;;;;;13.28;57.70;98252.84;6171659;28;96638;-62
2023/01/05 00:49:09;;;;;;;;;2.75;2.00;;;;;13.10;58.39;98253.13;6186901;28;96512;-61
2023/01/05 00:52:12;;;;;;;;;3.80;3.80;;;;;13.14;58.21;98257.03;6187260;28;96555;-62
2023/01/05 00:55:16;;;;;;;;;4.60;4.60;;;;;13.13;58.34;98244.56;6188298;28;96826;-62
2023/01/05 00:58:21;;;;;;;;;3.00;3.00;;;;;13.12;57.84;98227.50;6187976;28;96350;-62
2023/01/05 01:01:24;;;;;;;;;5.00;5.00;;;;;13.31;57.65;98231.50;6189085;28;96670;-61
2023/01/05 01:04:29;;;;;;;;;3.50;3.50;;;;;13.27;57.89;98218.72;6188759;28;96319;-61
2023/01/05 01:07:33;;;;;;;;;5.00;4.00;;;;;13.32;57.53;98210.66;6187892;28;96425;-61
2023/01/05 01:10:39;;;;;;;;;3.00;3.00;;;;;13.34;57.53;98228.25;6188113;28;96317;-61
2023/01/05 01:13:44;;;;;;;;;3.00;3.00;;;;;13.23;57.88;98212.19;6189117;28;96305;-61
2023/01/05 01:16:47;;;;;;;;;2.80;2.00;;;;;13.34;57.68;98203.91;6186670;27;96930;-60
2023/01/05 01:19:51;;;;;;;;;3.00;3.00;;;;;13.28;57.72;98201.41;6187653;28;96199;-60
2023/01/05 01:22:55;;;;;;;;;6.00;6.00;;;;;13.22;57.89;98195.13;6188530;28;96211;-61
2023/01/05 01:25:59;;;;;;;;;2.60;2.60;;;;;13.25;57.94;98196.50;6188962;28;96358;-61
2023/01/05 01:29:04;;;;;;;;;4.00;4.00;;;;;13.29;57.84;98193.00;6187276;28;96357;-61
2023/01/05 01:32:07;;;;;;;;;3.00;2.75;;;;;13.20;58.14;98191.84;6186520;28;96239;-61
2023/01/05 01:35:10;;;;;;;;;3.00;3.00;;;;;13.25;57.79;98191.06;6187373;28;96638;-61
2023/01/05 01:38:14;;;;;;;;;2.00;2.00;;;;;13.32;57.67;98175.47;6201524;28;97051;-61
2023/01/05 01:41:17;;;;;;;;;4.00;4.00;;;;;13.26;57.83;98163.75;6186318;27;96358;-62
2023/01/05 01:44:53;;;;;;;;;4.00;4.00;;;;;13.32;57.50;98160.03;6180065;28;96446;-61
2023/01/05 01:48:01;;;;;;;;;3.00;3.00;;;;;13.37;57.14;98172.81;6184785;28;96284;-62
2023/01/05 01:51:10;;;;;;;;;4.00;4.00;;;;;13.37;56.92;98170.91;6188235;28;96079;-63
2023/01/05 01:54:17;;;;;;;;;4.00;3.25;;;;;13.27;57.25;98162.69;6186911;28;96668;-61
2023/01/05 01:57:22;;;;;;;;;3.40;3.40;;;;;13.35;58.48;98169.53;6188529;28;96209;-60
2023/01/05 02:00:27;;;;;;;;;3.00;3.00;;;;;13.25;58.80;98162.13;6200030;27;96717;-61
2023/01/05 02:03:32;;;;;;;;;3.25;3.25;;;;;13.33;58.50;98150.03;6187139;28;96258;-60
2023/01/05 02:06:36;;;;;;;;;3.00;3.00;;;;;13.25;58.85;98136.94;6186541;28;96759;-63
2023/01/05 02:09:39;;;;;;;;;4.40;4.00;;;;;13.36;58.34;98138.69;6187160;28;96356;-61
2023/01/05 02:12:57;;;;;;;;;3.40;3.40;;;;;13.43;57.87;98133.88;6186688;28;96894;-61
2023/01/05 02:16:11;;;;;;;;;4.00;4.00;;;;;13.49;57.58;98118.50;6186515;28;96948;-62
2023/01/05 02:19:53;;;;;;;;;2.80;2.80;;;;;13.47;57.41;98120.63;6186485;28;96732;-62
2023/01/05 02:23:23;;;;;;;;;4.00;4.00;;;;;13.59;57.21;98110.41;6194760;28;96794;-62
2023/01/05 02:27:20;;;;;;;;;3.50;3.50;;;;;13.61;57.12;98109.09;6176179;28;96331;-61
2023/01/05 02:30:58;;;;;;;;;3.00;3.00;;;;;13.60;57.52;98102.03;6214436;28;96614;-61
2023/01/05 02:34:20;;;;;;;;;4.00;4.00;;;;;13.41;57.99;98085.38;6155656;27;97586;-62
2023/01/05 02:37:29;;;;;;;;;3.00;3.00;;;;;13.74;57.38;98094.28;6185922;28;96487;-61
2023/01/05 02:40:37;;;;;;;;;2.60;2.60;;;;;13.63;58.23;98093.41;6185466;28;96538;-62
2023/01/05 02:43:43;;;;;;;;;3.00;3.00;;;;;13.63;58.38;98088.00;6185530;28;96650;-62
2023/01/05 02:46:47;;;;;;;;;2.60;2.60;;;;;13.46;58.84;98073.78;6173114;28;96316;-62
2023/01/05 02:49:58;;;;;;;;;2.00;2.00;;;;;13.69;58.13;98095.06;6144446;28;96290;-62
2023/01/05 02:53:08;;;;;;;;;3.00;3.00;;;;;13.53;58.94;98098.75;6161832;28;96328;-62
2023/01/05 02:56:17;;;;;;;;;1.00;1.00;;;;;13.63;58.61;98079.88;6172414;28;96631;-61
2023/01/05 02:59:27;;;;;;;;;3.00;3.00;;;;;13.48;58.90;98063.50;6201986;28;96778;-62
2023/01/05 03:02:31;;;;;;;;;2.60;2.60;;;;;13.64;58.71;98103.16;6190490;28;96916;-62
2023/01/05 03:05:42;;;;;;;;;3.00;3.00;;;;;13.60;59.58;98076.84;6183482;28;97549;-62
2023/01/05 03:08:51;;;;;;;;;3.00;3.00;;;;;13.68;59.97;98079.09;6162865;28;96321;-61
2023/01/05 03:15:27;;;;;;;;;2.75;2.75;;;;;13.58;60.28;98065.47;6186195;28;96454;-61
2023/01/05 03:18:32;;;;;;;;;3.00;3.00;;;;;13.72;59.58;98064.75;6177494;28;96951;-60
2023/01/05 03:35:32;;;;;;;;;4.00;4.00;;;;;13.91;58.09;98035.31;6201685;28;96484;-61
2023/01/05 03:38:43;;;;;;;;;2.40;2.40;;;;;13.85;58.02;98031.78;6186367;28;96348;-61
2023/01/05 03:41:48;;;;;;;;;2.00;2.00;;;;;13.92;57.73;98039.69;6176244;28;96694;-61
2023/01/05 03:44:53;;;;;;;;;1.00;1.00;;;;;13.81;58.01;98014.41;6185310;28;96344;-61
2023/01/05 03:47:57;;;;;;;;;2.00;2.00;;;;;14.02;57.25;98025.34;6176579;28;97487;-61
2023/01/05 03:51:03;;;;;;;;;3.00;3.00;;;;;14.08;56.96;98022.38;6176790;27;97142;-60
2023/01/05 03:54:08;;;;;;;;;3.50;3.50;;;;;14.12;56.26;98020.75;6181628;27;96904;-61
2023/01/05 03:57:12;;;;;;;;;3.00;3.00;;;;;14.20;56.41;98025.69;6180251;28;96472;-61
2023/01/05 04:00:17;;;;;;;;;3.00;3.00;;;;;14.27;56.18;98022.72;6184332;28;96359;-62
2023/01/05 04:03:20;;;;;;;;;2.40;2.40;;;;;14.25;56.54;98009.44;6185056;28;96237;-61
2023/01/05 04:06:33;;;;;;;;;2.00;1.00;;;;;14.30;56.36;98009.47;6185393;27;96777;-61
2023/01/05 04:09:40;;;;;;;;;2.00;2.00;;;;;14.26;56.13;98012.97;6176422;28;96305;-61
2023/01/05 04:12:46;;;;;;;;;2.00;2.00;;;;;14.33;56.22;98002.69;6165571;28;96620;-61
2023/01/05 04:15:51;;;;;;;;;1.60;1.60;;;;;14.29;56.09;98001.59;6187465;28;96398;-61
2023/01/05 04:18:55;;;;;;;;;2.00;2.00;;;;;14.33;55.86;97989.94;6194984;27;96604;-61
2023/01/05 04:21:59;;;;;;;;;2.00;2.00;;;;;14.34;56.04;98007.03;6185631;28;96321;-61
2023/01/05 04:25:07;;;;;;;;;2.00;2.00;;;;;14.35;55.97;98005.94;6165912;28;96357;-62
2023/01/05 04:28:11;;;;;;;;;3.00;3.00;;;;;14.31;55.95;98013.00;6174932;28;96282;-61
2023/01/05 04:31:14;;;;;;;;;2.00;2.00;;;;;14.29;56.11;98004.28;6180848;28;96540;-62
2023/01/05 04:34:20;;;;;;;;;3.00;3.00;;;;;14.19;55.98;98002.38;6168318;28;96406;-63
2023/01/05 04:37:28;;;;;;;;;2.00;1.80;;;;;14.25;55.92;98011.34;6157860;28;97073;-62
2023/01/05 04:40:33;;;;;;;;;1.50;1.50;;;;;14.38;55.06;98019.00;6180256;27;96643;-62
2023/01/05 04:43:38;;;;;;;;;2.00;2.00;;;;;14.36;54.78;98001.34;6175388;28;96410;-63
2023/01/05 04:46:42;;;;;;;;;2.00;2.00;;;;;14.30;54.91;98008.66;6174083;28;96234;-62
2023/01/05 04:49:47;;;;;;;;;2.00;2.00;;;;;14.33;55.23;98008.09;6171891;28;96844;-62
2023/01/05 04:52:51;;;;;;;;;2.00;2.00;;;;;14.40;55.31;97999.75;6177417;28;96611;-63
2023/01/05 04:55:57;;;;;;;;;2.00;2.00;;;;;14.42;56.03;98006.53;6162888;28;96719;-62
2023/01/05 04:59:05;;;;;;;;;2.00;2.00;;;;;14.44;56.91;98000.84;6182646;28;96193;-62
2023/01/05 05:02:12;;;;;;;;;2.80;2.80;;;;;14.32;56.81;97987.47;6187217;28;96244;-61
2023/01/05 05:05:18;;;;;;;;;2.60;2.00;;;;;14.37;56.73;97992.16;6194396;28;96399;-62
2023/01/05 05:08:26;;;;;;;;;1.00;1.00;;;;;14.36;56.73;97987.78;6187348;28;96245;-62
2023/01/05 05:11:31;;;;;;;;;3.00;2.60;;;;;14.45;56.31;97978.88;6199716;27;96365;-61
2023/01/05 05:14:34;;;;;;;;;2.00;2.00;;;;;14.52;55.85;97984.03;6184873;28;97139;-61
2023/01/05 05:17:38;;;;;;;;;2.00;2.00;;;;;14.52;55.41;97990.28;6186484;28;96332;-62
2023/01/05 05:20:47;;;;;;;;;1.00;1.00;;;;;14.46;55.13;97988.66;6211779;27;96219;-61
2023/01/05 05:23:51;;;;;;;;;1.60;1.60;;;;;14.56;55.31;97994.06;6211634;27;96316;-62
2023/01/05 05:26:56;;;;;;;;;2.00;2.00;;;;;14.46;55.04;98004.13;6195396;28;96754;-61
2023/01/05 05:29:59;;;;;;;;;1.80;1.80;;;;;14.40;56.12;97986.19;6188409;28;96429;-62
2023/01/05 05:33:02;;;;;;;;;1.00;1.00;;;;;14.45;56.74;97989.72;6169859;28;96279;-64
2023/01/05 05:36:07;;;;;;;;;1.00;1.00;;;;;14.39;57.40;97988.09;6173890;27;97024;-62
2023/01/05 05:39:12;;;;;;;;;0.80;0.80;;;;;14.46;57.67;97974.28;6187297;27;96318;-62
2023/01/05 05:42:16;;;;;;;;;1.00;1.00;;;;;14.46;57.32;97980.53;6176281;28;96413;-63
2023/01/05 05:45:20;;;;;;;;;1.00;1.00;;;;;14.40;57.97;97991.63;6181578;28;96847;-62
2023/01/05 05:48:23;;;;;;;;;1.00;1.00;;;;;14.32;59.10;97976.63;6170798;28;97354;-63
2023/01/05 05:51:27;;;;;;;;;2.00;2.00;;;;;14.35;59.61;97995.09;6183410;28;96291;-62
2023/01/05 05:54:30;;;;;;;;;1.60;1.60;;;;;14.39;60.34;98003.53;6185776;28;96895;-62
2023/01/05 05:57:35;;;;;;;;;1.00;1.00;;;;;14.44;60.83;98003.56;6186266;28;96718;-62
2023/01/05 06:00:38;;;;;;;;;2.00;2.00;;;;;14.39;61.44;97985.38;6178372;28;96734;-62
2023/01/05 06:03:42;;;;;;;;;2.00;2.00;;;;;14.42;61.31;97987.53;6179044;28;96761;-62
2023/01/05 06:06:45;;;;;;;;;2.25;2.00;;;;;14.38;61.60;97989.16;6183772;28;96502;-62
2023/01/05 06:09:49;;;;;;;;;1.00;1.00;;;;;14.30;62.26;97995.91;6171881;28;96889;-62
2023/01/05 06:12:54;;;;;;;;;1.00;1.00;;;;;14.25;62.32;97993.19;6173951;28;98098;-62
2023/01/05 06:15:58;;;;;;;;;1.00;1.00;;;;;14.17;62.22;97987.47;6185914;28;96689;-62
2023/01/05 06:19:02;;;;;;;;;1.00;1.00;;;;;14.27;61.60;97982.88;6185891;28;96674;-61
2023/01/05 06:22:06;;;;;;;;;1.00;1.00;;;;;14.39;61.13;98004.34;6185737;28;96444;-61
2023/01/05 06:25:10;;;;;;;;;2.00;2.00;;;;;14.31;61.35;97985.88;6183861;28;96939;-62
2023/01/05 06:28:14;;;;;;;;;1.00;1.00;;;;;14.17;61.46;97987.47;6186431;28;96480;-61
2023/01/05 06:31:22;;;;;;;;;1.00;1.00;;;;;14.12;61.65;97973.91;6186832;28;96108;-62
2023/01/05 06:34:25;;;;;;;;;1.00;1.00;;;;;14.11;61.65;97992.06;6193427;28;96232;-61
2023/01/05 06:37:29;;;;;;;;;1.00;0.80;;;;;14.01;61.91;97999.31;6186167;28;96792;-62
2023/01/05 06:40:32;;;;;;;;;2.60;2.60;;;;;14.05;61.97;97995.00;6183774;28;96772;-61
2023/01/05 06:43:37;;;;;;;;;2.60;2.60;;;;;14.04;62.45;97999.59;6187394;28;96614;-61
2023/01/05 06:46:40;;;;;;;;;3.00;2.00;;;;;13.99;62.33;97994.16;6187324;28;96378;-62
2023/01/05 06:49:44;;;;;;;;;1.00;1.00;;;;;13.83;62.45;97979.72;6187897;28;96291;-61
2023/01/05 06:52:47;;;;;;;;;1.00;1.00;;;;;13.86;62.25;97994.66;6201657;28;96527;-62
2023/01/05 06:55:50;;;;;;;;;4.00;3.00;;;;;13.78;62.67;97995.97;6187215;28;96226;-62
2023/01/05 06:58:55;;;;;;;;;1.80;1.80;;;;;13.72;63.10;97996.22;6187288;28;96723;-61
2023/01/05 07:01:58;;;;;;;;;1.00;1.00;;;;;13.77;63.11;97996.25;6186898;28;96300;-61
2023/01/05 07:05:02;;;;;;;;;1.00;1.00;;;;;13.87;62.73;97991.69;6187359;28;96301;-61
2023/01/05 07:08:06;;;;;;;;;1.00;1.00;;;;;13.99;62.49;97996.06;6187247;28;96794;-61
2023/01/05 07:11:09;;;;;;;;;2.00;1.40;;;;;13.85;63.29;97984.91;6187612;28;96826;-61
2023/01/05 07:14:14;;;;;;;;;1.00;1.00;;;;;14.02;62.87;98007.19;6187366;28;96249;-62
2023/01/05 07:17:18;;;;;;;;;1.00;1.00;;;;;14.07;62.91;98018.06;6187161;27;96868;-61
2023/01/05 07:20:21;;;;;;;;;3.00;2.00;;;;;14.17;63.11;98044.41;6186061;28;96695;-61
2023/01/05 07:23:24;;;;;;;;;4.00;4.00;;;;;14.32;63.19;98049.84;6187436;28;96107;-61
2023/01/05 07:26:28;;;;;;;;;2.00;2.00;;;;;14.35;63.26;98071.03;6188945;28;96338;-61
2023/01/05 07:29:32;;;;;;;;;1.60;1.00;;;;;14.40;63.72;98091.94;6187798;28;96633;-61
2023/01/05 07:32:36;;;;;;;;;2.00;2.00;;;;;14.40;61.73;98106.31;6187647;28;96271;-61
2023/01/05 07:35:39;;;;;;;;;2.00;2.00;;;;;14.21;59.42;98099.69;6186629;28;96235;-62
2023/01/05 07:38:42;;;;;;;;;0.20;0.20;;;;;14.00;58.22;98114.22;6186212;28;96417;-61
2023/01/05 07:41:45;;;;;;;;;1.00;1.00;;;;;13.83;56.78;98122.50;6187440;28;96710;-62
2023/01/05 07:44:52;;;;;;;;;1.00;1.00;;;;;13.69;57.43;98105.06;6187459;28;96312;-62
2023/01/05 07:47:56;;;;;;;;;1.00;1.00;;;;;13.43;57.96;98102.22;6187878;28;96806;-61
2023/01/05 07:51:01;;;;;;;;;1.00;1.00;;;;;13.26;59.64;98111.50;6187977;28;96585;-62
2023/01/05 07:54:04;;;;;;;;;0.20;0.20;;;;;13.12;61.58;98113.84;6187916;28;96217;-62
2023/01/05 07:57:08;;;;;;;;;2.00;2.00;;;;;13.08;63.17;98119.97;6202575;28;96204;-62
2023/01/05 08:00:14;;;;;;;;;0.00;0.00;;;;;12.96;64.49;98098.47;6185813;28;96609;-62
2023/01/05 08:03:17;;;;;;;;;2.00;2.00;;;;;13.14;63.99;98109.00;6186883;28;96576;-61
2023/01/05 08:06:20;;;;;;;;;1.00;1.00;;;;;13.17;65.14;98107.66;6186781;28;96570;-60
2023/01/05 08:16:07;;;;;;;;;2.00;1.00;;;;;13.11;64.64;98109.50;6186371;28;96362;-61
2023/01/05 08:19:11;;;;;;;;;2.00;1.60;;;;;12.93;64.87;98104.41;6187305;28;96254;-61
2023/01/05 08:22:15;;;;;;;;;3.50;3.00;;;;;13.12;64.49;98113.84;6185890;28;96302;-61
2023/01/05 08:25:19;;;;;;;;;2.67;2.67;;;;;13.06;64.74;98127.53;6186616;28;96921;-62
2023/01/05 08:28:22;;;;;;;;;2.00;1.00;;;;;13.15;64.76;98131.44;6185028;28;97867;-61
2023/01/05 08:31:39;;;;;;;;;3.00;3.00;;;;;13.02;65.39;98133.47;6186324;28;96196;-62
2023/01/05 08:34:42;;;;;;;;;2.40;2.40;;;;;12.95;66.23;98140.94;6186654;28;96352;-62
2023/01/05 08:37:45;;;;;;;;;2.00;2.00;;;;;12.88;66.61;98140.34;6187273;28;96220;-62
2023/01/05 08:40:49;;;;;;;;;1.20;1.00;;;;;12.90;66.61;98119.25;6190115;28;96230;-63
2023/01/05 08:43:53;;;;;;;;;2.00;2.00;;;;;12.96;66.45;98120.13;6190044;28;96321;-62
2023/01/05 08:46:58;;;;;;;;;3.00;3.00;;;;;13.04;65.96;98125.09;6189367;28;96380;-62
2023/01/05 08:50:02;;;;;;;;;3.00;3.00;;;;;12.93;66.24;98131.47;6188185;27;96370;-62
2023/01/05 08:53:05;;;;;;;;;3.00;3.00;;;;;12.95;65.84;98137.47;6189230;28;96389;-62
2023/01/05 08:56:09;;;;;;;;;3.00;3.00;;;;;12.89;65.86;98136.59;6189184;28;96519;-62
2023/01/05 08:59:13;;;;;;;;;3.00;3.00;;;;;12.98;65.68;98145.06;6185022;28;98735;-63
2023/01/05 09:02:18;;;;;;;;;2.00;2.00;;;;;13.05;65.15;98134.81;6188873;28;96364;-62
2023/01/05 09:05:28;;;;;;;;;2.00;2.00;;;;;13.06;65.08;98138.34;6188730;28;96820;-62
2023/01/05 09:08:33;;;;;;;;;3.20;3.20;;;;;12.90;65.43;98121.19;6188177;28;96406;-62
2023/01/05 09:11:36;;;;;;;;;2.00;2.00;;;;;12.73;65.69;98105.03;6188685;28;96377;-62
2023/01/05 09:14:40;;;;;;;;;4.00;4.00;;;;;12.90;65.25;98119.25;6188713;28;96241;-63
2023/01/05 09:17:45;;;;;;;;;4.00;4.00;;;;;12.93;65.35;98124.19;6189297;28;96464;-62
2023/01/05 09:20:55;;;;;;;;;3.00;2.00;;;;;12.97;64.77;98127.19;6188328;28;96234;-63
2023/01/05 09:24:17;;;;;;;;;3.00;3.00;;;;;12.94;64.72;98131.22;6188768;28;96596;-63
2023/01/05 09:27:21;;;;;;;;;4.00;3.00;;;;;12.99;64.16;98117.75;6186202;28;96823;-62
2023/01/05 09:30:24;;;;;;;;;2.00;2.00;;;;;13.11;63.29;98131.13;6183718;28;97346;-62
2023/01/05 09:33:29;;;;;;;;;3.00;2.00;;;;;13.15;62.87;98121.44;6179692;28;96227;-63
2023/01/05 09:36:32;;;;;;;;;3.00;3.00;;;;;13.46;62.17;98127.94;6185878;28;97121;-62
2023/01/05 09:39:36;;;;;;;;;3.40;3.00;;;;;13.83;61.46;98123.31;6185332;28;96233;-61
2023/01/05 09:42:44;;;;;;;;;3.60;3.60;;;;;15.38;57.96;98126.09;6186532;28;96642;-62
2023/01/05 09:45:50;;;;;;;;;2.00;2.00;;;;;16.70;52.50;98123.16;6185968;28;96488;-63
2023/01/05 09:48:59;;;;;;;;;3.00;3.00;;;;;17.33;50.25;98111.31;6186518;28;96343;-62
2023/01/05 09:52:08;;;;;;;;;3.00;3.00;;;;;17.55;48.50;98118.19;6185066;28;96837;-63
2023/01/05 09:55:15;;;;;;;;;3.20;2.80;;;;;17.18;48.79;98124.22;6194624;28;96341;-61
2023/01/05 09:58:23;;;;;;;;;3.00;3.00;;;;;16.70;49.90;98121.22;6188173;28;96158;-62
2023/01/05 10:01:34;;;;;;;;;3.75;3.00;;;;;16.44;50.90;98112.34;6186548;28;96293;-61
2023/01/05 10:04:39;;;;;;;;;4.20;4.00;;;;;16.03;51.61;98111.63;6181813;27;96484;-60
2023/01/05 10:07:49;;;;;;;;;3.00;3.00;;;;;15.75;52.55;98098.66;6184896;28;96346;-61
2023/01/05 10:14:29;;;;;;;;;4.00;4.00;;;;;15.07;54.72;98108.94;6184840;28;96694;-62
2023/01/05 10:17:35;;;;;;;;;5.00;5.00;;;;;14.99;55.39;98114.09;6177785;28;96246;-61
2023/01/05 10:21:04;;;;;;;;;4.80;4.00;;;;;14.83;56.33;98113.25;6184306;28;96880;-62
2023/01/05 10:24:24;;;;;;;;;2.75;2.75;;;;;14.71;56.53;98102.63;6184986;28;96586;-61
2023/01/05 10:27:34;;;;;;;;;6.40;5.40;;;;;14.62;57.17;98108.81;6184394;28;97066;-61
2023/01/05 10:30:50;;;;;;;;;5.75;5.75;;;;;14.60;57.08;98102.88;6185685;28;96552;-62
2023/01/05 10:34:01;;;;;;;;;4.00;4.00;;;;;14.31;57.86;98099.75;6182535;28;96184;-62
2023/01/05 10:37:27;;;;;;;;;3.25;3.00;;;;;14.24;57.93;98091.03;6184652;28;96550;-62
2023/01/05 10:40:42;;;;;;;;;4.40;4.40;;;;;14.33;57.58;98097.56;6184390;28;96254;-62
2023/01/05 10:44:11;;;;;;;;;3.50;3.50;;;;;14.23;57.38;98090.22;6183282;28;96234;-62
2023/01/05 10:47:15;;;;;;;;;5.00;5.00;;;;;14.18;56.98;98090.19;6177102;27;97069;-61
2023/01/05 10:50:35;;;;;;;;;4.00;4.00;;;;;14.34;56.88;98088.38;6185325;28;96761;-61
2023/01/05 10:53:42;;;;;;;;;4.00;3.40;;;;;14.32;56.33;98088.63;6185000;28;96265;-64
2023/01/05 10:56:46;;;;;;;;;3.00;2.60;;;;;14.35;56.77;98086.47;6183760;28;96548;-62
2023/01/05 10:59:55;;;;;;;;;3.40;3.00;;;;;14.31;56.66;98078.88;6183950;28;96182;-62
2023/01/05 11:03:03;;;;;;;;;4.00;4.00;;;;;14.36;56.58;98075.41;6186840;28;96325;-62
2023/01/05 11:06:08;;;;;;;;;4.00;3.40;;;;;14.46;56.25;98080.88;6186347;28;96263;-62
2023/01/05 11:09:18;;;;;;;;;5.00;4.00;;;;;14.49;55.81;98082.22;6186725;28;96194;-62
2023/01/05 11:12:25;;;;;;;;;6.00;6.00;;;;;14.42;55.78;98070.78;6186763;28;96359;-62
2023/01/05 11:15:31;;;;;;;;;4.00;4.00;;;;;14.35;56.05;98067.50;6186584;28;96873;-61
2023/01/05 11:18:47;;;;;;;;;4.00;3.25;;;;;14.33;55.61;98070.47;6176566;28;96281;-61
2023/01/05 11:21:50;;;;;;;;;4.40;4.00;;;;;14.34;55.67;98066.66;6161808;28;96330;-60
2023/01/05 11:25:22;;;;;;;;;3.00;2.20;;;;;14.41;55.58;98061.88;6161901;28;96312;-62
2023/01/05 11:28:26;;;;;;;;;7.40;6.40;;;;;14.46;55.48;98061.06;6161711;28;96156;-62
2023/01/05 11:31:35;;;;;;;;;3.40;3.00;;;;;14.34;55.64;98044.97;6180767;27;96414;-62
2023/01/05 11:34:42;;;;;;;;;4.00;4.00;;;;;14.57;55.39;98049.13;6186193;28;97089;-63
2023/01/05 11:37:46;;;;;;;;;4.00;4.00;;;;;14.68;55.00;98050.78;6185394;28;96264;-62
2023/01/05 11:40:52;;;;;;;;;7.00;6.00;;;;;14.67;54.66;98049.16;6184697;28;96256;-61
2023/01/05 11:43:59;;;;;;;;;5.00;5.00;;;;;14.80;54.41;98045.13;6185795;28;96336;-61
2023/01/05 11:47:06;;;;;;;;;7.00;6.00;;;;;14.64;54.06;98058.66;6201521;28;96308;-61
2023/01/05 11:50:20;;;;;;;;;4.00;3.75;;;;;14.63;54.24;98054.31;6185650;28;96487;-61
2023/01/05 11:53:34;;;;;;;;;5.00;5.00;;;;;14.54;54.36;98046.97;6185557;28;96859;-61
2023/01/05 11:56:38;;;;;;;;;4.00;4.00;;;;;14.51;54.10;98045.63;6185121;28;96381;-61
2023/01/05 11:59:45;;;;;;;;;4.00;4.00;;;;;14.61;53.70;98053.75;6179518;28;96892;-62
2023/01/05 12:03:13;;;;;;;;;4.40;4.00;;;;;14.49;54.03;98058.63;6177353;28;96895;-61
2023/01/05 12:06:30;;;;;;;;;5.00;5.00;;;;;14.51;53.50;98055.66;6168383;28;97503;-61
2023/01/05 12:09:35;;;;;;;;;6.00;5.50;;;;;14.41;53.71;98058.34;6163392;28;96394;-63
2023/01/05 12:12:51;;;;;;;;;3.60;2.80;;;;;14.42;53.93;98065.38;6179891;28;96801;-62
2023/01/05 12:16:12;;;;;;;;;3.00;3.00;;;;;14.38;54.20;98050.72;6174129;28;96885;-61
2023/01/05 12:19:40;;;;;;;;;3.60;3.00;;;;;14.35;54.89;98059.34;6183036;28;96353;-65
2023/01/05 12:23:10;;;;;;;;;3.75;2.75;;;;;14.40;55.20;98071.06;6184368;28;96709;-65
2023/01/05 12:26:21;;;;;;;;;2.40;2.40;;;;;14.45;54.98;98064.84;6181508;27;96694;-65
2023/01/05 12:29:50;;;;;;;;;3.60;3.20;;;;;14.49;54.77;98057.81;6182478;28;96272;-64
2023/01/05 12:33:29;;;;;;;;;3.00;3.00;;;;;14.45;54.33;98059.44;6181889;28;96424;-64
2023/01/05 12:37:08;;;;;;;;;4.50;4.50;;;;;14.38;54.67;98065.09;6181906;28;96541;-66
2023/01/05 12:40:32;;;;;;;;;4.00;3.00;;;;;14.35;55.21;98053.94;6197284;28;96409;-65
2023/01/05 12:43:47;;;;;;;;;3.60;3.60;;;;;14.50;55.64;98054.03;6182410;28;96213;-65
2023/01/05 12:47:09;;;;;;;;;4.00;4.00;;;;;14.59;55.08;98047.81;6183821;28;96284;-65
2023/01/05 12:50:23;;;;;;;;;4.00;4.00;;;;;14.67;55.09;98049.97;6184347;27;97149;-65
2023/01/05 12:53:38;;;;;;;;;3.00;3.00;;;;;14.58;53.73;98061.63;6183846;28;96298;-65
2023/01/05 12:56:48;;;;;;;;;4.40;4.40;;;;;14.61;53.30;98059.19;6184229;28;96323;-65
2023/01/05 12:59:56;;;;;;;;;4.40;4.00;;;;;14.63;53.23;98067.06;6183602;28;96531;-65
2023/01/05 13:03:03;;;;;;;;;5.40;4.40;;;;;14.71;53.16;98063.81;6174880;28;96428;-64
2023/01/05 13:06:10;;;;;;;;;5.00;4.00;;;;;14.73;53.16;98073.34;6176133;28;97617;-64
2023/01/05 13:09:20;;;;;;;;;5.00;4.00;;;;;14.83;54.00;98083.38;6183322;28;96561;-66
2023/01/05 13:12:24;;;;;;;;;4.40;4.40;;;;;14.80;53.68;98069.56;6168730;28;96527;-64
2023/01/05 13:15:33;;;;;;;;;5.00;4.00;;;;;14.76;53.93;98071.97;6163209;28;96671;-65
2023/01/05 13:18:50;;;;;;;;;4.00;3.25;;;;;14.55;54.78;98049.44;6157696;28;96799;-65
2023/01/05 13:21:54;;;;;;;;;7.00;6.00;;;;;14.70;54.31;98073.06;6164673;28;96291;-64
2023/01/05 13:25:03;;;;;;;;;4.80;4.80;;;;;14.71;54.24;98063.81;6184847;28;96225;-65
2023/01/05 13:28:18;;;;;;;;;3.00;3.00;;;;;14.63;54.54;98065.16;6186556;28;96226;-65
2023/01/05 13:31:46;;;;;;;;;6.00;5.00;;;;;14.72;54.19;98058.13;6174950;28;96299;-64
2023/01/05 13:35:11;;;;;;;;;4.00;4.00;;;;;14.69;54.20;98055.16;6176372;28;96464;-65
2023/01/05 13:38:56;;;;;;;;;3.80;3.20;;;;;14.67;54.24;98047.28;6186515;28;96347;-65
2023/01/05 13:42:40;;;;;;;;;5.60;5.60;;;;;14.77;53.73;98040.22;6205375;27;96686;-66
2023/01/05 13:46:09;;;;;;;;;4.40;3.00;;;;;14.80;52.44;98053.28;6178498;27;96500;-68
2023/01/05 13:49:37;;;;;;;;;4.00;4.00;;;;;14.92;51.86;98064.66;6160446;28;97494;-64
2023/01/05 13:52:58;;;;;;;;;3.60;3.60;;;;;14.99;51.10;98071.50;6166526;27;96611;-65
2023/01/05 13:56:09;;;;;;;;;4.00;3.00;;;;;15.07;50.62;98116.28;6165047;28;96354;-65
2023/01/05 13:59:27;;;;;;;;;1.00;1.00;;;;;14.83;49.99;98117.84;6178651;27;96308;-64
2023/01/05 14:02:47;;;;;;;;;1.40;1.40;;;;;14.14;52.20;98150.63;6186635;28;96442;-65
2023/01/05 14:05:54;;;;;;;;;1.00;1.00;;;;;13.73;53.90;98144.91;6187219;28;96349;-64
2023/01/05 14:09:02;;;;;;;;;3.00;2.25;;;;;13.24;55.45;98174.00;6175079;28;96683;-65
2023/01/05 14:12:26;;;;;;;;;1.00;1.00;;;;;12.89;57.00;98193.41;6183888;28;96242;-64
2023/01/05 14:15:39;;;;;;;;;1.00;1.00;;;;;12.51;57.66;98215.09;6174032;28;96291;-64
2023/01/05 14:18:50;;;;;;;;;2.00;2.00;;;;;12.24;58.89;98215.00;6184703;28;96991;-65
2023/01/05 14:22:23;;;;;;;;;2.00;2.00;;;;;11.98;57.84;98192.19;6185068;28;96502;-65
2023/01/05 14:25:47;;;;;;;;;4.00;4.00;;;;;11.74;57.92;98204.22;6183813;28;96446;-65
2023/01/05 14:28:50;;;;;;;;;2.40;1.80;;;;;11.63;57.85;98219.41;6193602;28;96442;-65
2023/01/05 14:31:54;;;;;;;;;2.00;1.40;;;;;11.53;57.17;98219.22;6183665;28;96492;-64
2023/01/05 14:35:02;;;;;;;;;2.00;1.60;;;;;11.43;57.32;98173.19;6186357;28;97010;-64
2023/01/05 14:38:15;;;;;;;;;2.00;1.20;;;;;11.39;57.68;98166.63;6185672;28;96477;-64
2023/01/05 14:41:24;;;;;;;;;1.00;1.00;;;;;11.41;56.38;98172.59;6185342;28;96428;-64
2023/01/05 14:44:33;;;;;;;;;1.20;1.00;;;;;11.58;57.19;98176.13;6186179;28;96315;-64
2023/01/05 14:47:42;;;;;;;;;2.60;2.60;;;;;11.71;56.24;98197.41;6186097;28;96201;-64
2023/01/05 14:50:45;;;;;;;;;2.00;2.00;;;;;11.80;56.13;98194.31;6185687;28;96362;-64
2023/01/05 14:53:51;;;;;;;;;2.00;2.00;;;;;11.87;55.72;98208.50;6184358;28;96562;-65
2023/01/05 14:57:34;;;;;;;;;1.50;1.50;;;;;11.94;55.80;98220.75;6185003;28;96405;-65
2023/01/05 15:00:43;;;;;;;;;2.00;2.00;;;;;11.98;56.55;98213.78;6167141;28;96335;-64
2023/01/05 15:03:55;;;;;;;;;1.80;1.00;;;;;12.00;56.47;98211.66;6180542;28;96212;-64
2023/01/05 15:07:28;;;;;;;;;2.00;2.00;;;;;12.02;56.56;98184.41;6170878;28;96291;-64
2023/01/05 15:10:48;;;;;;;;;3.00;2.00;;;;;12.06;56.41;98186.38;6182959;28;96654;-64
2023/01/05 15:14:33;;;;;;;;;3.00;3.00;;;;;12.18;55.96;98171.91;6185623;28;97941;-64
2023/01/05 15:18:15;;;;;;;;;2.80;2.00;;;;;12.22;55.81;98179.28;6185869;28;95891;-65
2023/01/05 15:21:50;;;;;;;;;3.20;2.20;;;;;12.19;55.86;98181.66;6196942;27;96378;-64
2023/01/05 15:25:24;;;;;;;;;3.00;2.20;;;;;12.28;55.88;98181.00;6185416;28;96134;-65
2023/01/05 15:28:47;;;;;;;;;5.00;5.00;;;;;12.33;56.36;98186.47;6185657;28;96228;-65
2023/01/05 15:31:55;;;;;;;;;4.00;4.00;;;;;12.27;55.87;98182.03;6186229;28;96681;-65
2023/01/05 15:35:08;;;;;;;;;4.00;3.00;;;;;12.35;55.97;98178.13;6183046;28;97582;-64